Time;durP1;ratioP1;P1;durP2;ratioP2;P2;SDS_P1;SDS_P2;PMS_P1;PMS_P2;Temp;Humidity;BMP_temperature;BMP_pressure;BME280_temperature;BME280_humidity;BME280_pressure;Samples;Min_cycle;Max_cycle;Signal;HPM_P1;HPM_P2
2024/02/20 00:01:27;;;;;;;16.50;8.48;;;;;;;7.94;100.00;100547.69;6272717;28;20068;-70
2024/02/20 00:04:28;;;;;;;14.88;8.25;;;;;;;7.93;100.00;100555.53;6284755;28;20083;-70
2024/02/20 00:07:29;;;;;;;16.60;9.30;;;;;;;7.90;100.00;100555.69;6288917;28;20487;-70
2024/02/20 00:10:32;;;;;;;15.02;8.45;;;;;;;7.92;100.00;100546.09;6272530;28;20064;-70
2024/02/20 00:13:33;;;;;;;13.52;7.35;;;;;;;7.95;100.00;100552.00;6273158;28;20396;-71
2024/02/20 00:16:34;;;;;;;18.38;9.80;;;;;;;7.96;100.00;100543.28;6273962;28;20051;-74
2024/02/20 00:19:34;;;;;;;17.60;9.05;;;;;;;7.95;100.00;100544.22;6280634;28;20049;-70
2024/02/20 00:22:35;;;;;;;14.07;8.00;;;;;;;7.95;100.00;100545.94;6271914;28;20056;-74
2024/02/20 00:25:36;;;;;;;13.00;7.63;;;;;;;7.93;100.00;100548.63;6285965;28;20364;-75
2024/02/20 00:28:40;;;;;;;14.98;8.10;;;;;;;7.89;100.00;100552.25;6283094;28;20060;-70
2024/02/20 00:31:41;;;;;;;14.32;8.05;;;;;;;7.88;100.00;100548.78;6276643;28;20053;-70
2024/02/20 00:34:42;;;;;;;13.15;8.02;;;;;;;7.88;100.00;100553.97;6277369;28;20499;-70
2024/02/20 00:37:43;;;;;;;13.63;8.02;;;;;;;7.91;100.00;100546.97;6275511;28;20092;-74
2024/02/20 00:40:43;;;;;;;15.38;8.55;;;;;;;7.87;100.00;100549.72;6271803;28;20103;-74
2024/02/20 00:43:44;;;;;;;11.77;7.07;;;;;;;7.82;100.00;100553.41;6278797;28;20061;-75
2024/02/20 00:46:45;;;;;;;17.45;8.90;;;;;;;7.81;100.00;100551.72;6270969;28;20060;-70
2024/02/20 00:49:48;;;;;;;13.10;7.93;;;;;;;7.83;100.00;100549.91;6271486;28;20057;-74
2024/02/20 00:52:49;;;;;;;15.27;8.73;;;;;;;7.83;100.00;100548.16;6271992;28;20049;-75
2024/02/20 00:55:50;;;;;;;12.38;7.47;;;;;;;7.84;100.00;100547.25;6303652;28;20132;-74
2024/02/20 00:58:50;;;;;;;12.95;7.82;;;;;;;7.87;100.00;100547.13;6271870;28;20048;-75
2024/02/20 01:01:51;;;;;;;15.20;7.43;;;;;;;7.85;100.00;100541.13;6275834;28;20567;-75
2024/02/20 01:04:52;;;;;;;12.80;8.00;;;;;;;7.87;100.00;100541.91;6275460;28;20063;-70
2024/02/20 01:07:53;;;;;;;13.40;6.85;;;;;;;7.88;100.00;100540.16;6270125;28;20053;-70
2024/02/20 01:10:54;;;;;;;15.52;7.88;;;;;;;7.82;100.00;100545.63;6269110;28;20048;-70
2024/02/20 01:13:55;;;;;;;13.32;8.55;;;;;;;7.75;100.00;100544.19;6270560;28;20057;-75
2024/02/20 01:16:56;;;;;;;14.15;8.13;;;;;;;7.75;100.00;100537.22;6271246;28;20143;-75
2024/02/20 01:19:58;;;;;;;15.63;8.27;;;;;;;7.71;100.00;100530.47;6272177;28;20057;-75
2024/02/20 01:22:59;;;;;;;;;;;;;;;7.67;100.00;100536.72;6270969;28;20055;-75
2024/02/20 01:26:03;;;;;;;15.85;8.30;;;;;;;7.67;100.00;100537.53;6275169;28;19924;-75
2024/02/20 01:29:03;;;;;;;17.40;8.65;;;;;;;7.63;100.00;100529.94;6272542;28;20411;-75
2024/02/20 01:32:04;;;;;;;18.15;8.73;;;;;;;7.63;100.00;100530.78;6271212;28;20056;-74
2024/02/20 01:35:06;;;;;;;19.42;9.18;;;;;;;7.64;100.00;100526.47;6270757;28;20053;-70
2024/02/20 01:38:07;;;;;;;18.98;9.02;;;;;;;7.61;100.00;100527.41;6270637;28;20049;-70
2024/02/20 01:41:07;;;;;;;19.73;9.73;;;;;;;7.59;100.00;100533.59;6271032;28;20522;-69
2024/02/20 01:44:09;;;;;;;18.17;8.98;;;;;;;7.54;100.00;100519.97;6272529;28;20052;-74
2024/02/20 01:47:12;;;;;;;22.95;10.35;;;;;;;7.47;100.00;100520.22;6269808;28;20045;-74
2024/02/20 01:50:13;;;;;;;21.88;10.82;;;;;;;7.23;100.00;100526.38;6285027;28;20060;-74
2024/02/20 01:53:14;;;;;;;22.27;10.93;;;;;;;7.29;100.00;100528.72;6271799;28;20052;-74
2024/02/20 01:56:17;;;;;;;21.90;11.25;;;;;;;7.37;100.00;100533.59;6271227;28;20375;-74
2024/02/20 01:59:18;;;;;;;22.00;10.70;;;;;;;7.26;100.00;100529.69;6269221;28;20464;-74
2024/02/20 02:02:20;;;;;;;20.90;11.02;;;;;;;7.25;100.00;100530.59;6286109;28;20098;-70
2024/02/20 02:05:20;;;;;;;18.40;10.88;;;;;;;7.37;100.00;100538.78;6275494;28;20053;-70
2024/02/20 02:08:21;;;;;;;19.88;11.55;;;;;;;7.38;100.00;100535.31;6271251;28;20049;-74
2024/02/20 02:11:22;;;;;;;22.02;12.38;;;;;;;7.19;100.00;100527.41;6269971;28;20048;-74
2024/02/20 02:14:27;;;;;;;22.48;11.93;;;;;;;7.25;100.00;100542.75;6269418;28;20512;-74
2024/02/20 02:17:28;;;;;;;21.90;11.35;;;;;;;7.23;100.00;100532.41;6269688;28;20049;-75
2024/02/20 02:20:29;;;;;;;20.52;11.98;;;;;;;7.22;100.00;100530.69;6269505;28;20102;-75
2024/02/20 02:23:30;;;;;;;21.52;11.45;;;;;;;7.25;100.00;100529.75;6270792;28;20202;-75
2024/02/20 02:26:31;;;;;;;24.20;12.95;;;;;;;7.25;100.00;100527.16;6275850;28;20071;-75
2024/02/20 02:29:31;;;;;;;22.15;11.98;;;;;;;7.30;100.00;100527.81;6284976;28;20395;-75
2024/02/20 02:32:32;;;;;;;29.80;12.82;;;;;;;7.26;100.00;100524.47;6294532;28;20053;-70
2024/02/20 02:35:34;;;;;;;23.55;12.57;;;;;;;7.23;100.00;100521.19;6271058;28;20053;-75
2024/02/20 02:38:35;;;;;;;28.50;13.45;;;;;;;7.22;100.00;100515.13;6271135;28;20060;-75
2024/02/20 02:41:36;;;;;;;31.73;13.55;;;;;;;7.15;100.00;100518.88;6271101;28;20076;-70
2024/02/20 02:44:37;;;;;;;31.80;14.43;;;;;;;7.17;100.00;100513.66;6269705;28;20498;-69
2024/02/20 02:47:38;;;;;;;28.70;13.75;;;;;;;7.11;100.00;100525.09;6271313;28;20045;-74
2024/02/20 02:50:39;;;;;;;26.15;13.52;;;;;;;7.16;100.00;100524.91;6292192;28;20067;-74
2024/02/20 02:53:40;;;;;;;29.55;14.38;;;;;;;7.03;100.00;100516.78;6269756;28;20048;-74
2024/02/20 02:56:44;;;;;;;28.38;14.07;;;;;;;7.04;100.00;100513.25;6293643;28;20059;-70
2024/02/20 02:59:45;;;;;;;24.30;13.88;;;;;;;7.02;100.00;100508.16;6270801;28;20060;-74
2024/02/20 03:02:48;;;;;;;24.85;13.75;;;;;;;6.97;100.00;100520.44;6271568;28;20091;-74
2024/02/20 03:05:49;;;;;;;26.55;13.93;;;;;;;6.91;100.00;100520.69;6273944;28;20079;-71
2024/02/20 03:08:50;;;;;;;26.13;14.73;;;;;;;6.83;100.00;100530.50;6276259;28;20061;-70
2024/02/20 03:11:51;;;;;;;22.90;13.50;;;;;;;6.74;100.00;100528.28;6298350;28;20052;-74
2024/02/20 03:14:54;;;;;;;25.40;13.60;;;;;;;6.68;100.00;100521.56;6273186;28;20048;-75
2024/02/20 03:17:57;;;;;;;23.67;12.50;;;;;;;6.63;100.00;100523.47;6274683;28;20052;-74
2024/02/20 03:21:02;;;;;;;22.45;12.60;;;;;;;6.53;100.00;100524.72;6273545;28;20415;-74
2024/02/20 03:24:06;;;;;;;23.88;12.43;;;;;;;6.42;100.00;100520.78;6275431;28;20063;-70
2024/02/20 03:27:07;;;;;;;24.85;13.73;;;;;;;6.32;100.00;100514.25;6294609;28;20053;-71
2024/02/20 03:30:08;;;;;;;29.38;13.82;;;;;;;6.24;100.00;100516.25;6274255;28;20053;-69
2024/02/20 03:33:11;;;;;;;25.85;13.95;;;;;;;6.13;100.00;100521.78;6273784;28;20091;-70
2024/02/20 03:36:12;;;;;;;26.42;12.93;;;;;;;6.00;100.00;100518.78;6283639;28;20047;-74
2024/02/20 03:39:13;;;;;;;28.13;12.50;;;;;;;5.95;100.00;100515.53;6273679;28;20515;-74
2024/02/20 03:42:14;;;;;;;25.45;13.02;;;;;;;5.90;100.00;100522.56;6274470;28;20495;-70
2024/02/20 03:45:14;;;;;;;25.77;13.45;;;;;;;5.79;100.00;100516.91;6278557;28;20084;-70
2024/02/20 03:48:15;;;;;;;29.30;13.30;;;;;;;5.72;100.00;100515.41;6284396;28;20084;-69
2024/02/20 03:51:18;;;;;;;22.58;12.43;;;;;;;5.61;100.00;100514.03;6272971;28;20053;-74
2024/02/20 03:54:18;;;;;;;;;;;;;;;5.59;100.00;100522.75;6274514;28;20053;-75
2024/02/20 03:57:19;;;;;;;21.20;11.38;;;;;;;5.48;100.00;100517.94;6282358;28;19974;-70
2024/02/20 04:00:24;;;;;;;22.55;12.32;;;;;;;5.34;100.00;100526.13;6299133;28;20057;-74
2024/02/20 04:03:24;;;;;;;23.13;11.88;;;;;;;5.33;100.00;100527.00;6285270;28;20051;-69
2024/02/20 04:06:25;;;;;;;28.58;13.60;;;;;;;5.16;100.00;100532.72;6273589;28;20041;-74
2024/02/20 04:09:26;;;;;;;26.80;13.77;;;;;;;5.18;100.00;100537.84;6272208;28;20057;-69
2024/02/20 04:12:27;;;;;;;31.05;13.65;;;;;;;5.18;100.00;100548.19;6285634;28;20060;-70
2024/02/20 04:15:28;;;;;;;45.50;18.80;;;;;;;5.08;100.00;100542.47;6273077;28;20059;-74
2024/02/20 04:18:32;;;;;;;47.83;20.75;;;;;;;5.02;100.00;100553.84;6276484;28;20127;-70
2024/02/20 04:21:33;;;;;;;47.20;19.98;;;;;;;4.94;100.00;100547.19;6279728;28;20048;-70
2024/02/20 04:24:34;;;;;;;42.50;18.50;;;;;;;4.98;100.00;100548.81;6273583;28;20049;-69
2024/02/20 04:27:37;;;;;;;43.88;18.02;;;;;;;4.96;100.00;100542.81;6298529;28;20052;-74
2024/02/20 04:30:44;;;;;;;41.38;17.98;;;;;;;4.89;100.00;100541.34;6293548;28;20053;-74
2024/02/20 04:33:45;;;;;;;45.30;18.35;;;;;;;4.82;100.00;100541.50;6288354;28;20049;-69
2024/02/20 04:36:46;;;;;;;35.95;18.90;;;;;;;4.85;100.00;100545.75;6271518;28;20056;-74
2024/02/20 04:39:47;;;;;;;38.80;18.27;;;;;;;4.76;100.00;100557.22;6271296;28;20122;-70
2024/02/20 04:42:48;;;;;;;51.15;18.85;;;;;;;4.68;100.00;100564.34;6268796;28;20522;-74
2024/02/20 04:45:49;;;;;;;39.28;18.75;;;;;;;4.71;100.00;100561.66;6270500;28;20049;-69
2024/02/20 04:48:50;;;;;;;39.03;17.25;;;;;;;4.75;100.00;100583.09;6271342;28;20512;-69
2024/02/20 04:51:51;;;;;;;35.75;16.05;;;;;;;4.70;100.00;100582.38;6270515;28;20053;-70
2024/02/20 04:54:55;;;;;;;34.92;16.65;;;;;;;4.68;100.00;100585.00;6275202;28;20053;-69
2024/02/20 04:57:56;;;;;;;33.20;15.48;;;;;;;4.72;100.00;100583.19;6270887;28;20059;-74
2024/02/20 05:00:59;;;;;;;37.65;16.40;;;;;;;4.75;100.00;100580.50;6272430;28;20597;-74
2024/02/20 05:04:01;;;;;;;40.72;15.43;;;;;;;4.77;100.00;100589.06;6277197;28;20383;-74
2024/02/20 05:07:03;;;;;;;26.87;13.80;;;;;;;4.76;100.00;100587.38;6279973;28;20516;-69
2024/02/20 05:10:07;;;;;;;36.00;14.65;;;;;;;4.70;100.00;100590.16;6270928;28;20052;-69
2024/02/20 05:13:10;;;;;;;26.98;13.45;;;;;;;4.67;100.00;100591.06;6274830;28;20483;-69
2024/02/20 05:16:11;;;;;;;27.85;13.75;;;;;;;4.61;100.00;100594.69;6285391;28;20051;-69
2024/02/20 05:19:12;;;;;;;36.30;13.82;;;;;;;4.71;100.00;100609.91;6286092;28;20049;-70
2024/02/20 05:22:13;;;;;;;55.40;14.50;;;;;;;4.66;100.00;100614.38;6278121;28;20064;-74
2024/02/20 05:25:16;;;;;;;81.93;11.57;;;;;;;4.40;100.00;100621.09;6271563;28;20491;-70
2024/02/20 05:28:18;;;;;;;62.28;11.48;;;;;;;4.33;100.00;100619.56;6271045;28;20140;-69
2024/02/20 05:31:30;;;;;;;64.90;11.30;;;;;;;4.28;100.00;100622.25;6280185;28;20058;-70
2024/02/20 05:34:30;;;;;;;59.53;10.13;;;;;;;4.46;100.00;100627.84;6297059;28;20475;-69
2024/02/20 05:37:31;;;;;;;76.38;10.20;;;;;;;4.63;100.00;100639.44;6296243;28;20113;-69
2024/02/20 05:40:32;;;;;;;73.43;9.45;;;;;;;4.44;100.00;100635.63;6273009;28;20511;-74
2024/02/20 05:43:33;;;;;;;39.42;8.93;;;;;;;4.51;100.00;100638.88;6295677;28;20056;-74
2024/02/20 05:46:34;;;;;;;66.28;9.40;;;;;;;4.57;100.00;100649.06;6271390;28;20459;-74
2024/02/20 05:49:35;;;;;;;47.47;9.57;;;;;;;4.71;100.00;100638.34;6287738;28;20059;-75
2024/02/20 05:52:35;;;;;;;53.75;12.38;;;;;;;4.70;100.00;100647.03;6281461;28;20672;-74
2024/02/20 05:55:36;;;;;;;27.70;13.75;;;;;;;4.89;100.00;100653.38;6272536;28;20045;-75
2024/02/20 05:58:37;;;;;;;23.27;12.05;;;;;;;4.92;100.00;100648.13;6293643;28;20388;-74
2024/02/20 06:01:38;;;;;;;25.25;12.13;;;;;;;5.06;100.00;100655.47;6284673;28;20064;-74
2024/02/20 06:04:39;;;;;;;26.35;12.90;;;;;;;5.20;100.00;100660.25;6272859;28;20055;-74
2024/02/20 06:07:41;;;;;;;27.70;13.95;;;;;;;5.30;100.00;100655.66;6286259;28;20359;-75
2024/02/20 06:10:42;;;;;;;26.02;13.13;;;;;;;5.39;100.00;100656.22;6269625;28;20064;-75
2024/02/20 06:13:44;;;;;;;25.02;13.07;;;;;;;5.47;100.00;100658.59;6270696;28;20107;-74
2024/02/20 06:16:44;;;;;;;27.73;14.87;;;;;;;5.51;100.00;100659.34;6269440;28;20092;-74
2024/02/20 06:19:45;;;;;;;25.88;13.55;;;;;;;5.54;100.00;100661.81;6270837;28;20049;-75
2024/02/20 06:22:46;;;;;;;28.95;14.98;;;;;;;5.56;100.00;100660.91;6309201;28;20057;-74
2024/02/20 06:25:47;;;;;;;26.25;14.45;;;;;;;5.69;100.00;100669.13;6295172;28;20049;-74
2024/02/20 06:28:48;;;;;;;28.15;13.75;;;;;;;5.77;100.00;100668.91;6284369;28;20052;-74
2024/02/20 06:31:53;;;;;;;30.55;14.65;;;;;;;5.81;100.00;100662.75;6270429;28;20144;-75
2024/02/20 06:34:53;;;;;;;32.75;18.25;;;;;;;5.80;100.00;100669.63;6267627;28;20060;-74
2024/02/20 06:37:54;;;;;;;37.45;20.08;;;;;;;5.81;100.00;100681.69;6271687;28;20384;-75
2024/02/20 06:40:57;;;;;;;42.40;21.90;;;;;;;5.65;100.00;100681.31;6273519;28;20056;-74
2024/02/20 06:43:58;;;;;;;33.22;15.73;;;;;;;5.49;100.00;100697.38;6272466;28;20049;-74
2024/02/20 06:47:01;;;;;;;26.08;13.75;;;;;;;5.64;100.00;100686.53;6274184;28;20083;-74
2024/02/20 06:50:04;;;;;;;29.15;14.43;;;;;;;5.85;100.00;100692.81;6273456;28;20487;-74
2024/02/20 06:53:06;;;;;;;26.20;13.07;;;;;;;5.90;100.00;100690.09;6274910;28;20060;-70
2024/02/20 06:56:09;;;;;;;27.05;14.18;;;;;;;6.00;100.00;100691.53;6274871;28;20053;-70
2024/02/20 06:59:10;;;;;;;35.15;16.10;;;;;;;6.11;100.00;100689.41;6273686;28;20053;-70
2024/02/20 07:02:10;;;;;;;33.58;16.35;;;;;;;6.18;100.00;100698.69;6273192;28;20049;-70
2024/02/20 07:05:13;;;;;;;31.65;16.73;;;;;;;6.21;100.00;100685.63;6273311;28;20560;-70
2024/02/20 07:08:13;;;;;;;34.58;15.15;;;;;;;6.38;100.00;100685.09;6274612;28;20056;-70
2024/02/20 07:11:16;;;;;;;28.95;15.65;;;;;;;6.42;100.00;100691.88;6274218;28;20053;-74
2024/02/20 07:14:17;;;;;;;33.65;16.65;;;;;;;6.56;100.00;100698.31;6274379;28;20052;-74
2024/02/20 07:17:18;;;;;;;37.25;18.98;;;;;;;6.54;100.00;100698.38;6272868;28;20148;-75
2024/02/20 07:20:18;;;;;;;40.38;19.90;;;;;;;6.66;100.00;100702.28;6274211;28;20052;-74
2024/02/20 07:23:21;;;;;;;36.35;18.08;;;;;;;6.77;100.00;100705.34;6273996;28;20057;-75
2024/02/20 07:26:28;;;;;;;43.33;19.77;;;;;;;6.77;100.00;100717.47;6274187;28;20048;-74
2024/02/20 07:29:29;;;;;;;40.70;19.63;;;;;;;6.85;100.00;100712.88;6272225;28;20515;-74
2024/02/20 07:32:32;;;;;;;42.58;21.63;;;;;;;6.96;100.00;100713.34;6272610;28;20082;-74
2024/02/20 07:35:35;;;;;;;44.05;23.50;;;;;;;7.06;100.00;100709.53;6273694;28;20111;-74
2024/02/20 07:38:36;;;;;;;50.55;25.83;;;;;;;7.13;100.00;100712.75;6279153;28;20094;-74
2024/02/20 07:41:36;;;;;;;44.90;24.88;;;;;;;7.21;100.00;100718.50;6298036;28;20067;-75
2024/02/20 07:44:37;;;;;;;43.50;24.02;;;;;;;7.28;100.00;100724.31;6298231;28;20052;-75
2024/02/20 07:47:38;;;;;;;43.90;24.30;;;;;;;7.31;100.00;100719.03;6297662;28;20052;-75
2024/02/20 07:50:39;;;;;;;45.15;19.58;;;;;;;7.31;100.00;100725.94;6298128;28;20109;-75
2024/02/20 07:53:39;;;;;;;36.78;19.52;;;;;;;7.50;100.00;100729.56;6296738;28;20503;-75
2024/02/20 07:56:40;;;;;;;31.70;16.08;;;;;;;7.63;100.00;100733.38;6297841;28;20047;-75
2024/02/20 07:59:41;;;;;;;31.92;15.88;;;;;;;7.56;100.00;100731.09;6297302;28;20052;-75
2024/02/20 08:02:43;;;;;;;29.55;14.95;;;;;;;7.70;100.00;100733.13;6298073;28;20058;-75
2024/02/20 08:05:43;;;;;;;35.03;18.57;;;;;;;7.75;100.00;100731.22;6296963;28;20048;-76
2024/02/20 08:08:45;;;;;;;54.75;28.95;;;;;;;7.82;100.00;100730.06;6296723;28;20514;-75
2024/02/20 08:11:45;;;;;;;78.20;37.80;;;;;;;7.82;100.00;100727.47;6297566;28;20056;-75
2024/02/20 08:14:46;;;;;;;37.15;17.60;;;;;;;7.82;100.00;100730.94;6297872;28;20556;-70
2024/02/20 08:17:48;;;;;;;31.38;13.90;;;;;;;8.02;100.00;100730.13;6297499;28;20059;-71
2024/02/20 08:20:49;;;;;;;27.17;13.50;;;;;;;8.09;100.00;100720.34;6296562;28;20138;-75
2024/02/20 08:23:50;;;;;;;28.33;13.48;;;;;;;8.09;100.00;100733.34;6297450;28;20277;-75
2024/02/20 08:26:51;;;;;;;25.73;12.68;;;;;;;8.12;100.00;100735.81;6296373;28;20055;-75
2024/02/20 08:29:54;;;;;;;26.83;12.88;;;;;;;8.08;100.00;100727.28;6297121;28;20067;-75
2024/02/20 08:32:54;;;;;;;26.23;11.70;;;;;;;8.07;100.00;100736.03;6296968;28;20541;-75
2024/02/20 08:35:55;;;;;;;23.52;12.88;;;;;;;8.06;100.00;100744.72;6296128;28;20053;-70
2024/02/20 08:38:56;;;;;;;27.15;13.05;;;;;;;8.03;100.00;100737.03;6295955;28;20037;-71
2024/02/20 08:41:57;;;;;;;29.67;14.13;;;;;;;8.23;100.00;100741.44;6297202;28;20466;-75
2024/02/20 08:45:03;;;;;;;27.25;11.45;;;;;;;8.16;100.00;100747.78;6296793;28;20048;-74
2024/02/20 08:48:04;;;;;;;31.58;12.55;;;;;;;8.21;100.00;100745.84;6296973;28;20144;-75
2024/02/20 08:51:05;;;;;;;25.52;11.90;;;;;;;8.18;100.00;100748.56;6296648;28;20482;-75
2024/02/20 08:54:06;;;;;;;25.25;12.73;;;;;;;8.23;100.00;100740.59;6295611;28;20063;-70
2024/02/20 08:57:07;;;;;;;27.60;12.95;;;;;;;8.21;100.00;100747.59;6295272;28;20090;-72
2024/02/20 09:00:11;;;;;;;31.55;14.88;;;;;;;8.29;100.00;100745.53;6295820;28;20394;-71
2024/02/20 09:03:12;;;;;;;27.98;13.32;;;;;;;8.28;100.00;100749.06;6296540;28;20048;-75
2024/02/20 09:06:13;;;;;;;28.67;12.80;;;;;;;8.33;100.00;100752.31;6296745;28;20384;-75
2024/02/20 09:09:14;;;;;;;31.73;14.48;;;;;;;8.39;100.00;100748.63;6295261;28;20060;-71
2024/02/20 09:12:16;;;;;;;32.40;14.27;;;;;;;8.24;100.00;100761.34;6296210;28;20422;-75
2024/02/20 09:15:17;;;;;;;32.15;14.48;;;;;;;8.38;100.00;100759.91;6296428;28;20131;-71
2024/02/20 09:18:17;;;;;;;32.20;14.52;;;;;;;8.48;100.00;100758.66;6296199;28;20040;-75
2024/02/20 09:21:18;;;;;;;30.52;13.95;;;;;;;8.54;100.00;100753.22;6296125;28;20526;-71
2024/02/20 09:24:21;;;;;;;25.98;13.18;;;;;;;8.53;100.00;100751.53;6296029;28;20064;-70
2024/02/20 09:27:23;;;;;;;27.70;12.23;;;;;;;8.58;100.00;100754.78;6296333;28;20047;-75
2024/02/20 09:30:24;;;;;;;29.10;14.45;;;;;;;8.66;100.00;100759.66;6295819;28;20414;-75
2024/02/20 09:33:24;;;;;;;31.05;14.23;;;;;;;8.60;100.00;100754.72;6295787;28;20051;-75
2024/02/20 09:36:25;;;;;;;32.35;14.45;;;;;;;8.52;100.00;100754.19;6294693;28;20052;-76
2024/02/20 09:39:26;;;;;;;27.92;13.25;;;;;;;8.73;100.00;100761.13;6294651;28;20080;-71
2024/02/20 09:42:30;;;;;;;38.90;16.83;;;;;;;8.58;100.00;100759.13;6295946;28;20044;-73
2024/02/20 09:45:34;;;;;;;31.05;15.13;;;;;;;8.71;100.00;100768.16;6294573;28;20052;-71
2024/02/20 09:48:37;;;;;;;35.53;17.92;;;;;;;8.65;100.00;100768.41;6295766;28;20040;-71
2024/02/20 09:51:39;;;;;;;28.70;14.10;;;;;;;8.82;100.00;100765.91;6294616;28;20061;-70
2024/02/20 09:54:43;;;;;;;31.80;14.90;;;;;;;8.92;100.00;100768.16;6294658;28;20412;-71
2024/02/20 09:57:44;;;;;;;30.13;14.43;;;;;;;8.97;100.00;100771.38;6295636;28;20406;-71
2024/02/20 10:00:45;;;;;;;26.90;12.90;;;;;;;8.86;100.00;100771.84;6294723;28;20061;-71
2024/02/20 10:03:50;;;;;;;41.92;14.07;;;;;;;8.93;100.00;100773.25;6295658;28;20141;-75
2024/02/20 10:06:53;;;;;;;29.85;13.65;;;;;;;9.06;100.00;100777.06;6295922;28;20047;-75
2024/02/20 10:09:54;;;;;;;27.20;14.20;;;;;;;9.22;100.00;100771.16;6294358;28;20499;-76
2024/02/20 10:12:59;;;;;;;25.92;12.88;;;;;;;9.17;100.00;100766.16;6299809;28;20411;-70
2024/02/20 10:16:03;;;;;;;28.60;14.25;;;;;;;9.16;100.00;100761.88;6300598;28;20487;-70
2024/02/20 10:19:04;;;;;;;31.55;14.98;;;;;;;9.07;100.00;100760.50;6299462;28;20529;-70
2024/02/20 10:22:08;;;;;;;31.58;15.98;;;;;;;9.04;100.00;100763.25;6299255;28;20550;-70
2024/02/20 10:25:12;;;;;;;32.60;14.85;;;;;;;9.16;100.00;100754.06;6300170;28;20479;-71
2024/02/20 10:28:13;;;;;;;35.38;13.85;;;;;;;9.24;100.00;100749.34;6300459;28;20140;-70
2024/02/20 10:31:13;;;;;;;27.55;12.82;;;;;;;9.31;100.00;100736.91;6299926;28;20056;-71
2024/02/20 10:34:21;;;;;;;33.17;16.08;;;;;;;9.78;100.00;100727.81;6298892;28;20058;-71
2024/02/20 10:37:26;;;;;;;26.13;13.45;;;;;;;9.88;100.00;100727.34;6299986;28;20041;-70
2024/02/20 10:40:26;;;;;;;25.33;12.13;;;;;;;9.64;100.00;100724.09;6300163;28;20105;-71
2024/02/20 10:43:28;;;;;;;28.92;13.30;;;;;;;9.79;100.00;100714.72;6298674;28;20053;-70
2024/02/20 10:46:36;;;;;;;27.52;13.32;;;;;;;9.91;100.00;100718.50;6300392;28;20058;-76
2024/02/20 10:49:37;;;;;;;23.67;11.95;;;;;;;10.12;100.00;100721.84;6299740;28;20132;-75
2024/02/20 10:52:39;;;;;;;28.13;13.07;;;;;;;10.25;100.00;100716.88;6299658;28;20052;-76
2024/02/20 10:55:42;;;;;;;23.10;12.27;;;;;;;10.19;100.00;100709.34;6299542;28;20048;-75
2024/02/20 10:58:45;;;;;;;;;;;;;;;10.32;100.00;100710.47;6299889;28;20064;-75
2024/02/20 11:01:45;;;;;;;;;;;;;;;10.32;100.00;100707.88;6298761;28;19920;-76
2024/02/20 11:04:47;;;;;;;19.50;9.15;;;;;;;10.23;100.00;100711.75;6298050;28;20271;-75
2024/02/20 11:07:48;;;;;;;24.08;11.52;;;;;;;10.45;100.00;100715.94;6298292;28;20083;-75
2024/02/20 11:10:48;;;;;;;19.80;11.00;;;;;;;10.52;100.00;100711.22;6298069;28;20052;-76
2024/02/20 11:13:56;;;;;;;25.67;11.70;;;;;;;10.31;100.00;100708.78;6297836;28;20140;-76
2024/02/20 11:16:57;;;;;;;23.08;12.00;;;;;;;10.33;100.00;100709.53;6297938;28;20132;-76
2024/02/20 11:20:25;;;;;;;26.45;12.60;;;;;;;10.29;100.00;100700.16;6299043;28;20503;-76
2024/02/20 11:23:30;;;;;;;22.02;11.02;;;;;;;10.20;100.00;100696.25;6296769;28;20071;-76
2024/02/20 11:26:31;;;;;;;20.60;11.40;;;;;;;10.20;100.00;100692.78;6299074;28;20049;-75
2024/02/20 11:29:33;;;;;;;30.42;11.73;;;;;;;10.27;100.00;100689.81;6298529;28;20057;-76
2024/02/20 11:32:34;;;;;;;;;;;;;;;10.12;100.00;100697.53;6299247;28;20453;-76
2024/02/20 11:35:37;;;;;;;21.42;11.05;;;;;;;10.17;100.00;100685.97;6298632;28;19920;-76
2024/02/20 11:38:41;;;;;;;19.60;11.07;;;;;;;10.13;100.00;100687.03;6298787;28;20041;-76
2024/02/20 11:41:44;;;;;;;18.85;10.70;;;;;;;10.23;100.00;100679.59;6297511;28;20052;-75
2024/02/20 11:44:45;;;;;;;22.60;12.15;;;;;;;10.15;100.00;100680.00;6298707;28;20105;-75
2024/02/20 11:48:01;;;;;;;39.97;15.13;;;;;;;10.32;100.00;100676.56;6298523;28;20159;-76
2024/02/20 11:51:02;;;;;;;25.90;13.52;;;;;;;10.52;100.00;100680.75;6298621;28;20049;-75
2024/02/20 11:54:05;;;;;;;21.73;12.07;;;;;;;10.54;100.00;100683.31;6298293;28;20517;-76
2024/02/20 11:57:06;;;;;;;23.17;11.45;;;;;;;10.61;100.00;100672.47;6298171;28;20106;-76
2024/02/20 12:00:08;;;;;;;27.80;11.98;;;;;;;10.54;100.00;100675.47;6298286;28;20059;-76
2024/02/20 12:03:09;;;;;;;26.80;14.00;;;;;;;10.49;100.00;100666.13;6298058;28;20048;-76
2024/02/20 12:06:12;;;;;;;20.25;10.93;;;;;;;10.59;100.00;100669.09;6296711;28;20045;-76
2024/02/20 12:09:16;;;;;;;19.38;10.40;;;;;;;10.51;100.00;100665.22;6297851;28;20078;-70
2024/02/20 12:12:29;;;;;;;20.80;9.93;;;;;;;10.46;100.00;100668.91;6297783;28;20142;-71
2024/02/20 12:15:36;;;;;;;16.25;9.05;;;;;;;10.58;100.00;100671.78;6297576;28;20060;-70
2024/02/20 12:18:37;;;;;;;23.13;10.02;;;;;;;10.76;100.00;100663.00;6297932;28;20098;-70
2024/02/20 12:21:38;;;;;;;20.00;10.68;;;;;;;10.55;100.00;100658.91;6297831;28;20074;-71
2024/02/20 12:24:39;;;;;;;18.80;10.13;;;;;;;10.76;100.00;100668.22;6297535;28;20468;-71
2024/02/20 12:27:42;;;;;;;20.20;10.40;;;;;;;10.83;98.65;100658.31;6296147;28;20055;-70
2024/02/20 12:30:48;;;;;;;17.42;9.90;;;;;;;10.95;96.47;100660.28;6297276;28;20105;-71
2024/02/20 12:33:49;;;;;;;21.98;11.60;;;;;;;10.78;97.57;100663.78;6297203;28;20055;-72
2024/02/20 12:36:50;;;;;;;18.55;10.50;;;;;;;10.68;97.66;100652.97;6295859;28;20045;-70
2024/02/20 12:39:52;;;;;;;17.67;9.07;;;;;;;10.71;98.08;100648.50;6296139;28;20503;-70
2024/02/20 12:42:52;;;;;;;18.85;10.20;;;;;;;10.86;99.29;100647.72;6297130;28;20135;-70
2024/02/20 12:45:54;;;;;;;16.45;9.93;;;;;;;10.87;97.14;100652.88;6295854;28;20056;-70
2024/02/20 12:48:55;;;;;;;17.20;9.52;;;;;;;10.82;96.01;100638.34;6296939;28;20053;-70
2024/02/20 12:51:58;;;;;;;16.40;8.75;;;;;;;10.96;96.42;100628.03;6295807;28;20048;-72
2024/02/20 12:54:59;;;;;;;19.83;9.73;;;;;;;10.89;95.76;100629.25;6296813;28;20049;-71
2024/02/20 12:58:12;;;;;;;20.33;10.32;;;;;;;11.01;96.84;100626.00;6296724;28;20080;-70
2024/02/20 13:01:15;;;;;;;16.80;10.27;;;;;;;11.19;96.48;100628.56;6296765;28;20525;-70
2024/02/20 13:04:16;;;;;;;22.42;11.57;;;;;;;11.07;95.94;100628.28;6295617;28;20055;-70
2024/02/20 13:07:17;;;;;;;21.55;10.40;;;;;;;11.21;96.61;100624.09;6295438;28;20127;-71
2024/02/20 13:10:17;;;;;;;23.15;11.82;;;;;;;11.15;95.80;100625.25;6296768;28;20057;-70
2024/02/20 13:13:18;;;;;;;20.83;11.55;;;;;;;11.25;95.38;100617.78;6295295;28;20074;-76
2024/02/20 13:16:19;;;;;;;24.73;12.13;;;;;;;10.94;97.25;100627.25;6296152;28;20056;-76
2024/02/20 13:19:20;;;;;;;21.10;11.40;;;;;;;10.79;99.59;100625.44;6296397;28;20380;-76
2024/02/20 13:22:26;;;;;;;26.10;12.90;;;;;;;11.07;99.49;100630.88;6295098;28;20529;-70
2024/02/20 13:25:26;;;;;;;21.48;11.82;;;;;;;11.26;98.92;100624.66;6296086;28;20098;-70
2024/02/20 13:28:27;;;;;;;23.27;12.05;;;;;;;11.21;97.42;100611.88;6295913;28;20071;-71
2024/02/20 13:31:30;;;;;;;23.40;12.80;;;;;;;11.32;95.68;100613.88;6296116;28;20117;-71
2024/02/20 13:34:31;;;;;;;28.38;13.13;;;;;;;11.22;96.41;100616.19;6296138;28;20052;-70
2024/02/20 13:37:32;;;;;;;23.48;12.55;;;;;;;11.40;96.65;100613.47;6294915;28;20045;-70
2024/02/20 13:40:33;;;;;;;20.38;11.57;;;;;;;11.41;96.23;100616.00;6294831;28;20063;-75
2024/02/20 13:43:33;;;;;;;22.40;12.50;;;;;;;11.78;95.46;100616.53;6296447;28;20048;-76
2024/02/20 13:46:34;;;;;;;22.23;11.73;;;;;;;11.79;92.89;100607.75;6294208;28;20045;-75
2024/02/20 13:49:37;;;;;;;20.83;11.18;;;;;;;11.59;93.25;100610.66;6295875;28;20056;-75